createdAt,value
2019-04-26T00:00:07.842Z,44.53
2019-04-26T00:02:42.223Z,45.91
2019-04-26T00:05:10.543Z,45.75
2019-04-26T00:07:39.312Z,44.14
2019-04-26T00:10:10.451Z,45.07
2019-04-26T00:12:46.592Z,46.61
2019-04-26T00:15:28.851Z,44.46
2019-04-26T00:17:58.855Z,44.39
2019-04-26T00:20:27.120Z,45.50
2019-04-26T00:22:55.379Z,46.93
2019-04-26T00:25:23.669Z,44.07
2019-04-26T00:27:51.928Z,46.79
2019-04-26T00:30:21.075Z,45.78
2019-04-26T00:32:49.491Z,47.32
2019-04-26T00:35:17.858Z,46.90
2019-04-26T00:37:46.096Z,47.24
2019-04-26T00:40:14.414Z,44.87
2019-04-26T00:42:43.451Z,48.27
2019-04-26T00:45:12.500Z,47.41
2019-04-26T00:47:42.579Z,48.22
2019-04-26T00:50:11.060Z,48.96
2019-04-26T00:52:39.802Z,49.58
2019-04-26T00:55:08.727Z,47.56
2019-04-26T00:57:37.377Z,47.61
2019-04-26T01:00:06.787Z,48.02
2019-04-26T01:02:36.689Z,49.44
2019-04-26T01:05:05.799Z,47.81
2019-04-26T01:07:34.142Z,44.87
2019-04-26T01:10:02.398Z,44.78
2019-04-26T01:12:30.675Z,45.86
2019-04-26T01:14:58.950Z,45.27
2019-04-26T01:17:27.214Z,45.02
2019-04-26T01:19:55.658Z,46.50
2019-04-26T01:22:27.628Z,47.59
2019-04-26T01:24:56.077Z,46.69
2019-04-26T01:27:26.107Z,43.04
2019-04-26T01:29:57.184Z,44.30
2019-04-26T01:32:26.137Z,47.83
2019-04-26T01:34:55.218Z,46.14
2019-04-26T01:37:24.714Z,45.11
2019-04-26T01:39:56.182Z,44.39
2019-04-26T01:42:26.463Z,43.11
2019-04-26T01:45:00.955Z,44.17
2019-04-26T01:47:32.656Z,43.02
2019-04-26T01:49:59.490Z,44.82
2019-04-26T01:52:27.819Z,44.94
2019-04-26T01:54:56.063Z,46.32
2019-04-26T01:57:25.872Z,48.11
2019-04-26T01:59:56.670Z,47.11
2019-04-26T02:02:29.852Z,49.06
2019-04-26T02:05:02.797Z,50.22
2019-04-26T02:07:41.183Z,49.73
2019-04-26T02:10:12.341Z,49.45
2019-04-26T02:12:43.017Z,49.16
2019-04-26T02:15:11.640Z,51.02
2019-04-26T02:17:40.595Z,49.15
2019-04-26T02:20:09.126Z,48.96
2019-04-26T02:22:45.815Z,50.62
2019-04-26T02:25:14.159Z,48.23
2019-04-26T02:27:42.479Z,50.61
2019-04-26T02:30:10.750Z,49.15
2019-04-26T02:32:40.157Z,46.64
2019-04-26T02:35:08.891Z,49.00
2019-04-26T02:37:38.336Z,47.38
2019-04-26T02:40:09.982Z,49.33
2019-04-26T02:42:40.254Z,49.46
2019-04-26T02:45:26.944Z,48.15
2019-04-26T02:48:01.375Z,49.95
2019-04-26T02:50:33.272Z,48.55
2019-04-26T02:53:19.584Z,49.84
2019-04-26T02:56:07.744Z,50.07
2019-04-26T02:58:48.243Z,49.28
2019-04-26T03:01:16.793Z,51.34
2019-04-26T03:03:45.068Z,49.79
2019-04-26T03:06:13.610Z,52.35
2019-04-26T03:08:42.735Z,51.38
2019-04-26T03:11:17.273Z,50.74
2019-04-26T03:13:47.402Z,51.01
2019-04-26T03:16:25.408Z,49.80
2019-04-26T03:18:58.482Z,52.79
2019-04-26T03:21:43.291Z,52.17
2019-04-26T03:24:26.774Z,52.02
2019-04-26T03:27:22.367Z,51.67
2019-04-26T03:30:17.509Z,53.35
2019-04-26T03:32:57.449Z,52.83
2019-04-26T03:35:56.616Z,51.66
2019-04-26T03:38:43.405Z,51.83
2019-04-26T03:41:30.982Z,50.91
2019-04-26T03:44:14.057Z,51.41
2019-04-26T03:46:45.518Z,51.47
2019-04-26T03:49:19.421Z,53.39
2019-04-26T03:52:02.635Z,52.25
2019-04-26T03:54:32.426Z,51.92
2019-04-26T03:57:21.770Z,51.51
2019-04-26T03:59:54.861Z,53.31
2019-04-26T04:02:50.430Z,53.22
2019-04-26T04:05:40.183Z,53.49
2019-04-26T04:08:11.363Z,53.81
2019-04-26T04:10:48.809Z,50.81
2019-04-26T04:13:42.967Z,52.17
2019-04-26T04:16:31.870Z,51.97
2019-04-26T04:19:21.515Z,51.60
2019-04-26T04:22:11.066Z,51.96
2019-04-26T04:24:46.825Z,52.40
2019-04-26T04:27:36.178Z,52.63
2019-04-26T04:30:07.599Z,50.40
2019-04-26T04:32:52.175Z,52.79
2019-04-26T04:35:25.089Z,53.97
2019-04-26T04:38:13.011Z,54.74
2019-04-26T04:41:08.458Z,53.99
2019-04-26T04:43:38.568Z,55.96
2019-04-26T04:46:32.599Z,56.67
2019-04-26T04:49:31.644Z,56.82
2019-04-26T04:52:03.169Z,57.65
2019-04-26T04:54:42.657Z,60.75
2019-04-26T04:57:37.405Z,60.41
2019-04-26T05:00:28.411Z,56.04
2019-04-26T05:03:16.439Z,56.74
2019-04-26T05:06:07.678Z,57.00
2019-04-26T05:08:40.489Z,58.22
2019-04-26T05:11:14.742Z,57.55
2019-04-26T05:13:46.406Z,58.51
2019-04-26T05:16:40.035Z,59.00
2019-04-26T05:19:33.367Z,56.99
2019-04-26T05:22:38.040Z,58.59
2019-04-26T05:25:46.856Z,57.11
2019-04-26T05:28:35.295Z,60.12
2019-04-26T05:31:11.310Z,59.58
2019-04-26T05:34:01.996Z,58.06
2019-04-26T05:36:48.831Z,60.16
2019-04-26T05:39:20.274Z,57.81
2019-04-26T05:42:14.638Z,55.18
2019-04-26T05:45:20.802Z,54.93
2019-04-26T05:48:16.459Z,54.07
2019-04-26T05:51:13.154Z,57.46
2019-04-26T05:54:07.143Z,61.20
2019-04-26T05:57:07.401Z,58.85
2019-04-26T05:59:41.659Z,58.39
2019-04-26T06:02:46.136Z,57.10
2019-04-26T06:05:56.430Z,58.98
2019-04-26T06:08:47.548Z,61.30
2019-04-26T06:11:23.320Z,64.24
2019-04-26T06:14:08.305Z,63.27
2019-04-26T06:16:59.293Z,56.13
2019-04-26T06:19:57.310Z,59.70
2019-04-26T06:22:53.583Z,57.24
2019-04-26T06:25:27.767Z,62.42
2019-04-26T06:28:02.722Z,62.24
2019-04-26T06:30:45.072Z,61.51
2019-04-26T06:33:22.431Z,57.63
2019-04-26T06:35:54.152Z,54.93
2019-04-26T06:38:43.777Z,56.24
2019-04-26T06:41:21.326Z,58.88
2019-04-26T06:44:01.258Z,57.58
2019-04-26T06:46:52.426Z,83.75
2019-04-26T06:49:31.322Z,72.33
2019-04-26T06:52:10.709Z,74.91
2019-04-26T06:54:51.940Z,73.22
2019-04-26T06:57:30.186Z,73.80
2019-04-26T07:00:12.212Z,75.92
2019-04-26T07:03:02.045Z,75.11
2019-04-26T07:05:42.392Z,75.68
2019-04-26T07:08:39.922Z,66.67
2019-04-26T07:11:15.681Z,70.84
2019-04-26T07:14:04.723Z,67.31
2019-04-26T07:16:41.801Z,60.80
2019-04-26T07:19:21.852Z,56.54
2019-04-26T07:22:10.882Z,59.27
2019-04-26T07:25:21.714Z,60.42
2019-04-26T07:28:06.497Z,61.21
2019-04-26T07:30:47.754Z,61.98
2019-04-26T07:33:21.049Z,61.57
2019-04-26T07:35:52.498Z,60.63
2019-04-26T07:38:54.306Z,58.96
2019-04-26T07:41:51.426Z,62.29
2019-04-26T07:44:39.285Z,63.54
2019-04-26T07:47:39.577Z,61.70
2019-04-26T07:50:14.231Z,60.93
2019-04-26T07:53:04.594Z,62.00
2019-04-26T07:55:55.176Z,60.87
2019-04-26T07:58:43.123Z,56.79
2019-04-26T08:01:31.365Z,60.19
2019-04-26T08:04:09.384Z,57.37
2019-04-26T08:06:52.673Z,57.46
2019-04-26T08:09:26.919Z,59.35
2019-04-26T08:11:59.388Z,58.99
2019-04-26T08:14:49.732Z,56.64
2019-04-26T08:17:27.686Z,58.72
2019-04-26T08:20:05.497Z,56.25
2019-04-26T08:22:34.498Z,56.68
2019-04-26T08:25:04.425Z,59.64
2019-04-26T08:27:33.174Z,57.28
2019-04-26T08:30:10.477Z,57.45
2019-04-26T08:32:37.034Z,57.77
2019-04-26T08:35:15.290Z,59.02
2019-04-26T08:37:44.802Z,59.62
2019-04-26T08:40:22.126Z,54.63
2019-04-26T08:42:57.309Z,56.14
2019-04-26T08:46:01.500Z,53.01
2019-04-26T08:48:17.266Z,54.75
2019-04-26T08:50:47.434Z,54.76
2019-04-26T08:53:17.320Z,54.38
2019-04-26T08:55:46.523Z,55.21
2019-04-26T08:58:16.322Z,55.30
2019-04-26T09:00:50.076Z,55.83
2019-04-26T09:03:20.942Z,54.82
2019-04-26T09:06:03.939Z,59.01
2019-04-26T09:08:34.011Z,57.89
2019-04-26T09:11:03.363Z,56.80
2019-04-26T09:13:33.709Z,54.77
2019-04-26T09:16:09.870Z,56.03
2019-04-26T09:18:43.428Z,60.00
2019-04-26T09:21:08.225Z,58.23
2019-04-26T09:23:54.309Z,57.50
2019-04-26T09:26:29.791Z,56.75
2019-04-26T09:29:08.919Z,54.22
2019-04-26T09:31:44.326Z,54.50
2019-04-26T09:34:15.100Z,53.75
2019-04-26T09:36:43.492Z,54.24
2019-04-26T09:39:12.846Z,54.49
2019-04-26T09:41:41.184Z,54.53
2019-04-26T09:44:19.887Z,53.18
2019-04-26T09:47:06.058Z,55.19
2019-04-26T09:49:42.300Z,57.35
2019-04-26T09:52:12.323Z,58.20
2019-04-26T09:54:40.594Z,56.81
2019-04-26T09:57:08.928Z,54.66
2019-04-26T09:59:39.949Z,55.11
2019-04-26T10:02:07.681Z,56.47
2019-04-26T10:04:35.921Z,52.39
2019-04-26T10:07:04.251Z,57.45
2019-04-26T10:09:33.387Z,54.95
2019-04-26T10:12:18.492Z,53.00
2019-04-26T10:14:50.941Z,53.38
2019-04-26T10:17:26.801Z,57.54
2019-04-26T10:19:56.162Z,56.67
2019-04-26T10:22:26.186Z,52.47
2019-04-26T10:24:54.439Z,51.87
2019-04-26T10:27:22.696Z,50.71
2019-04-26T10:29:51.037Z,52.18
2019-04-26T10:32:21.593Z,53.25
2019-04-26T10:34:49.361Z,53.15
2019-04-26T10:37:17.660Z,52.19
2019-04-26T10:39:45.970Z,52.98
2019-04-26T10:42:14.388Z,51.22
2019-04-26T10:44:42.746Z,52.07
2019-04-26T10:47:10.989Z,51.71
2019-04-26T10:49:44.474Z,53.56
2019-04-26T10:52:16.999Z,53.24
2019-04-26T10:54:49.735Z,52.41
2019-04-26T10:57:28.662Z,52.74
2019-04-26T11:00:01.266Z,52.85
2019-04-26T11:02:29.532Z,50.08
2019-04-26T11:04:57.774Z,49.82
2019-04-26T11:07:26.055Z,52.55
2019-04-26T11:09:54.305Z,52.01
2019-04-26T11:12:22.707Z,53.35
2019-04-26T11:14:53.322Z,52.74
2019-04-26T11:17:21.127Z,50.85
2019-04-26T11:19:49.380Z,52.59
2019-04-26T11:22:28.608Z,51.87
2019-04-26T11:24:50.015Z,53.18
2019-04-26T11:27:17.638Z,56.04
2019-04-26T11:29:53.546Z,57.11
2019-04-26T11:32:15.971Z,55.94
2019-04-26T11:34:44.300Z,54.85
2019-04-26T11:37:13.462Z,53.97
2019-04-26T11:39:42.576Z,52.29
2019-04-26T11:42:11.846Z,52.29
2019-04-26T11:44:40.826Z,49.89
2019-04-26T11:47:09.109Z,47.83
2019-04-26T11:49:41.439Z,50.41
2019-04-26T11:52:07.345Z,47.16
2019-04-26T11:54:35.616Z,47.07
2019-04-26T11:57:04.035Z,47.51
2019-04-26T11:59:32.304Z,49.55
2019-04-26T12:02:00.593Z,51.40
2019-04-26T12:04:42.635Z,52.77
2019-04-26T12:07:21.520Z,52.19
2019-04-26T12:09:51.628Z,51.15
2019-04-26T12:12:19.933Z,52.07
2019-04-26T12:14:48.180Z,50.94
2019-04-26T12:17:16.463Z,50.58
2019-04-26T12:19:48.207Z,52.41
2019-04-26T12:22:14.848Z,50.66
2019-04-26T12:24:43.127Z,50.27
2019-04-26T12:27:11.466Z,48.42
2019-04-26T12:29:39.752Z,51.58
2019-04-26T12:32:08.004Z,51.22
2019-04-26T12:34:36.277Z,53.26
2019-04-26T12:37:04.596Z,52.15
2019-04-26T12:39:36.607Z,49.78
2019-04-26T12:42:03.670Z,50.08
2019-04-26T12:44:36.444Z,50.46
2019-04-26T12:47:05.325Z,48.78
2019-04-26T12:49:35.443Z,48.32
2019-04-26T12:52:03.571Z,51.15
2019-04-26T12:54:31.816Z,51.39
2019-04-26T12:57:01.665Z,50.56
2019-04-26T12:59:30.094Z,51.62
2019-04-26T13:02:05.344Z,51.59
2019-04-26T13:04:35.846Z,52.50
2019-04-26T13:07:06.884Z,52.49
2019-04-26T13:09:37.437Z,52.54
2019-04-26T13:12:19.238Z,50.95
2019-04-26T13:14:57.745Z,51.88
2019-04-26T13:17:31.261Z,52.34
2019-04-26T13:19:57.797Z,50.10
2019-04-26T13:22:27.793Z,50.92
2019-04-26T13:24:56.058Z,49.90
2019-04-26T13:27:24.317Z,50.86
2019-04-26T13:30:01.856Z,47.91
2019-04-26T13:32:22.580Z,47.28
2019-04-26T13:34:50.875Z,47.46
2019-04-26T13:37:19.131Z,48.19
2019-04-26T13:39:47.405Z,49.97
2019-04-26T13:42:17.389Z,49.17
2019-04-26T13:44:59.563Z,48.64
2019-04-26T13:47:30.814Z,48.65
2019-04-26T13:50:03.084Z,47.76
2019-04-26T13:52:31.350Z,45.90
2019-04-26T13:54:59.625Z,43.36
2019-04-26T13:57:27.892Z,43.95
2019-04-26T13:59:56.143Z,45.32
2019-04-26T14:02:24.420Z,43.33
2019-04-26T14:04:52.776Z,44.42
2019-04-26T14:07:24.533Z,44.65
2019-04-26T14:09:51.032Z,43.85
2019-04-26T14:12:19.318Z,44.28
2019-04-26T14:14:47.584Z,45.06
2019-04-26T14:17:15.863Z,45.99
2019-04-26T14:19:45.394Z,44.89
2019-04-26T14:22:15.779Z,44.40
2019-04-26T14:24:45.698Z,45.39
2019-04-26T14:27:24.714Z,42.68
2019-04-26T14:29:52.973Z,45.76
2019-04-26T14:32:22.943Z,45.22
2019-04-26T14:34:51.230Z,46.73
2019-04-26T14:37:19.496Z,44.13
2019-04-26T14:39:50.663Z,45.45
2019-04-26T14:42:32.711Z,45.72
2019-04-26T14:44:49.664Z,44.96
2019-04-26T14:47:18.371Z,43.20
2019-04-26T14:49:46.903Z,43.35
2019-04-26T14:52:15.167Z,42.71
2019-04-26T14:54:46.075Z,44.84
2019-04-26T14:57:21.079Z,45.21
2019-04-26T14:59:56.624Z,43.98
2019-04-26T15:02:47.259Z,43.06
2019-04-26T15:05:33.227Z,41.97
2019-04-26T15:08:03.902Z,42.89
2019-04-26T15:10:43.944Z,42.17
2019-04-26T15:13:17.066Z,43.44
2019-04-26T15:15:37.384Z,43.18
2019-04-26T15:18:05.740Z,43.15
2019-04-26T15:20:34.184Z,44.39
2019-04-26T15:23:03.149Z,43.31
2019-04-26T15:25:31.827Z,42.26
2019-04-26T15:28:02.442Z,42.50
2019-04-26T15:30:34.669Z,41.14
2019-04-26T15:33:03.023Z,43.31
2019-04-26T15:35:34.177Z,42.56
2019-04-26T15:38:01.485Z,43.41
2019-04-26T15:40:38.294Z,42.62
2019-04-26T15:43:14.745Z,44.71
2019-04-26T15:45:42.548Z,44.18
2019-04-26T15:48:28.772Z,43.53
2019-04-26T15:50:57.717Z,42.56
2019-04-26T15:53:25.997Z,42.43
2019-04-26T15:55:54.316Z,43.70
2019-04-26T15:58:22.715Z,45.32
2019-04-26T16:00:52.754Z,44.24
2019-04-26T16:03:22.687Z,43.93
2019-04-26T16:05:51.075Z,42.98
2019-04-26T16:08:19.340Z,43.96
2019-04-26T16:10:47.593Z,43.76
2019-04-26T16:13:20.699Z,43.23
2019-04-26T16:15:48.687Z,42.30
2019-04-26T16:18:17.370Z,40.11
2019-04-26T16:20:45.924Z,39.77
2019-04-26T16:23:14.217Z,41.62
2019-04-26T16:25:42.894Z,42.32
2019-04-26T16:28:30.770Z,42.71
2019-04-26T16:31:02.486Z,44.45
2019-04-26T16:33:35.224Z,42.88
2019-04-26T16:36:06.148Z,43.42
2019-04-26T16:38:34.224Z,43.64
2019-04-26T16:41:03.298Z,43.63
2019-04-26T16:43:37.654Z,44.29
2019-04-26T16:46:02.261Z,43.72
2019-04-26T16:48:30.667Z,44.63
2019-04-26T16:51:01.184Z,43.49
2019-04-26T16:53:43.771Z,42.26
2019-04-26T16:55:59.518Z,42.15
2019-04-26T16:58:30.902Z,43.45
2019-04-26T17:00:58.347Z,44.71
2019-04-26T17:03:26.680Z,41.77
2019-04-26T17:06:04.790Z,41.60
2019-04-26T17:08:25.381Z,42.81
2019-04-26T17:10:56.615Z,43.70
2019-04-26T17:13:29.845Z,42.87
2019-04-26T17:15:58.317Z,43.99
2019-04-26T17:18:26.905Z,44.18
2019-04-26T17:20:53.695Z,45.26
2019-04-26T17:23:30.304Z,45.29
2019-04-26T17:26:29.314Z,46.37
2019-04-26T17:28:57.238Z,46.77
2019-04-26T17:31:25.528Z,47.03
2019-04-26T17:33:53.793Z,48.28
2019-04-26T17:36:22.055Z,48.45
2019-04-26T17:38:50.634Z,50.47
2019-04-26T17:41:18.925Z,47.36
2019-04-26T17:43:51.838Z,47.41
2019-04-26T17:46:18.306Z,47.26
2019-04-26T17:48:49.380Z,47.18
2019-04-26T17:51:19.106Z,47.37
2019-04-26T17:53:48.129Z,46.19
2019-04-26T17:56:17.401Z,45.80
2019-04-26T17:58:52.272Z,45.35
2019-04-26T18:01:39.091Z,46.31
2019-04-26T18:03:51.278Z,47.85
2019-04-26T18:06:28.864Z,46.13
2019-04-26T18:08:52.333Z,46.71
2019-04-26T18:11:19.591Z,48.41
2019-04-26T18:13:47.191Z,49.97
2019-04-26T18:16:17.795Z,49.38
2019-04-26T18:18:53.992Z,49.64
2019-04-26T18:21:37.072Z,49.08
2019-04-26T18:24:05.429Z,48.15
2019-04-26T18:26:33.739Z,49.23
2019-04-26T18:29:03.723Z,46.88
2019-04-26T18:31:33.623Z,49.77
2019-04-26T18:34:01.982Z,49.35
2019-04-26T18:36:32.108Z,47.82
2019-04-26T18:39:00.341Z,45.66
2019-04-26T18:41:29.117Z,48.39
2019-04-26T18:44:00.013Z,45.87
2019-04-26T18:46:35.705Z,46.75
2019-04-26T18:49:04.579Z,46.68
2019-04-26T18:51:33.405Z,48.92
2019-04-26T18:54:13.670Z,50.08
2019-04-26T18:56:40.985Z,47.04
2019-04-26T18:59:11.785Z,49.77
2019-04-26T19:01:41.872Z,47.16
2019-04-26T19:04:12.787Z,49.40
2019-04-26T19:06:42.370Z,48.51
2019-04-26T19:09:09.458Z,47.96
2019-04-26T19:11:43.811Z,48.83
2019-04-26T19:14:15.025Z,50.08
2019-04-26T19:16:46.461Z,49.46
2019-04-26T19:19:22.769Z,50.19
2019-04-26T19:21:54.648Z,50.48
2019-04-26T19:24:23.153Z,51.74
2019-04-26T19:26:51.506Z,49.76
2019-04-26T19:29:27.026Z,50.74
2019-04-26T19:31:49.767Z,51.04
2019-04-26T19:34:18.026Z,52.02
2019-04-26T19:36:46.315Z,49.97
2019-04-26T19:39:14.671Z,48.74
2019-04-26T19:41:43.024Z,52.11
2019-04-26T19:44:14.705Z,50.15
2019-04-26T19:46:53.952Z,52.68
2019-04-26T19:49:38.537Z,51.66
2019-04-26T19:52:23.199Z,52.09
2019-04-26T19:55:02.317Z,53.71
2019-04-26T19:57:39.104Z,53.14
2019-04-26T20:00:10.299Z,51.86
2019-04-26T20:02:39.271Z,51.59
2019-04-26T20:05:07.848Z,52.24
2019-04-26T20:07:36.350Z,51.04
2019-04-26T20:10:05.571Z,50.07
2019-04-26T20:12:37.936Z,50.44
2019-04-26T20:15:05.990Z,50.75
2019-04-26T20:17:34.244Z,52.06
2019-04-26T20:20:02.610Z,51.25
2019-04-26T20:22:32.106Z,54.24
2019-04-26T20:25:02.328Z,51.25
2019-04-26T20:27:32.225Z,52.36
2019-04-26T20:30:02.390Z,51.27
2019-04-26T20:32:33.706Z,51.40
2019-04-26T20:35:08.705Z,51.24
2019-04-26T20:37:37.037Z,50.67
2019-04-26T20:40:18.803Z,52.17
2019-04-26T20:42:37.535Z,51.21
2019-04-26T20:45:08.496Z,52.15
2019-04-26T20:47:36.879Z,49.54
2019-04-26T20:50:07.269Z,51.90
2019-04-26T20:52:35.565Z,53.42
2019-04-26T20:55:05.181Z,53.00
2019-04-26T20:57:34.550Z,53.47
2019-04-26T21:00:05.499Z,53.51
2019-04-26T21:02:33.838Z,51.73
2019-04-26T21:05:06.095Z,54.10
2019-04-26T21:07:32.603Z,55.50
2019-04-26T21:10:00.916Z,57.04
2019-04-26T21:12:29.212Z,55.34
2019-04-26T21:14:57.485Z,57.20
2019-04-26T21:17:27.779Z,56.01
2019-04-26T21:19:58.513Z,55.01
2019-04-26T21:22:28.764Z,53.33
2019-04-26T21:24:58.540Z,51.95
2019-04-26T21:27:44.697Z,51.47
2019-04-26T21:30:33.644Z,53.20
2019-04-26T21:33:13.355Z,53.11
2019-04-26T21:36:01.987Z,53.75
2019-04-26T21:38:34.179Z,52.95
2019-04-26T21:41:19.110Z,54.37
2019-04-26T21:43:47.395Z,54.77
2019-04-26T21:46:19.179Z,53.72
2019-04-26T21:48:45.680Z,53.53
2019-04-26T21:51:16.124Z,54.47
2019-04-26T21:53:45.320Z,57.50
2019-04-26T21:56:14.753Z,53.42
2019-04-26T21:58:43.636Z,56.09
2019-04-26T22:01:18.990Z,56.96
2019-04-26T22:03:53.671Z,55.72
2019-04-26T22:06:20.020Z,57.58
2019-04-26T22:08:59.342Z,58.00
2019-04-26T22:11:27.293Z,58.98
2019-04-26T22:14:13.192Z,59.48
2019-04-26T22:16:40.668Z,60.20
2019-04-26T22:19:16.555Z,60.71
2019-04-26T22:21:55.391Z,57.34
2019-04-26T22:24:25.283Z,57.05
2019-04-26T22:26:53.743Z,57.05
2019-04-26T22:29:22.992Z,54.54
2019-04-26T22:31:54.602Z,55.74
2019-04-26T22:34:23.450Z,55.37
2019-04-26T22:36:53.547Z,55.05
2019-04-26T22:39:22.796Z,56.01
2019-04-26T22:41:53.412Z,55.64
2019-04-26T22:44:35.582Z,52.83
2019-04-26T22:47:05.495Z,54.06
2019-04-26T22:49:34.931Z,52.14
2019-04-26T22:52:06.467Z,53.96
2019-04-26T22:54:37.670Z,56.24
2019-04-26T22:57:04.007Z,53.93
2019-04-26T22:59:33.908Z,56.18
2019-04-26T23:02:03.503Z,55.06
2019-04-26T23:04:33.030Z,52.48
2019-04-26T23:07:03.440Z,52.26
2019-04-26T23:09:33.289Z,53.08
2019-04-26T23:12:06.171Z,52.66
2019-04-26T23:14:39.165Z,53.08
2019-04-26T23:17:09.061Z,56.13
2019-04-26T23:19:38.976Z,54.16
2019-04-26T23:22:08.471Z,53.92
2019-04-26T23:24:36.764Z,52.19
2019-04-26T23:27:05.426Z,54.82
2019-04-26T23:29:33.739Z,51.97
2019-04-26T23:32:03.592Z,52.01
2019-04-26T23:34:33.674Z,53.13
2019-04-26T23:37:03.194Z,52.20
2019-04-26T23:39:32.786Z,51.65
2019-04-26T23:42:01.224Z,50.33
2019-04-26T23:44:29.525Z,53.06
2019-04-26T23:47:01.282Z,52.22
2019-04-26T23:49:27.912Z,51.85
2019-04-26T23:51:56.314Z,52.93
2019-04-26T23:54:28.113Z,51.97
2019-04-26T23:56:57.742Z,52.73
2019-04-26T23:59:24.856Z,53.13
